»·PEaware :: DAL495 KLAX-KSLC

DAL495 :: KLAX-KSLC

FLIGHT INFORMATION

Flight Status: Arrived
Operator:
Delta Air Lines
More flights by this operator :: More flights under this callsign
Pilot: John L. (29598)
Aircraft: AIRBUS A319
(A319)
More flights by this aircraft type
Origin: KLAX Los Angeles Intl
United States
Destination: KSLC Salt Lake City Intl
United States
More flights between these airports :: More routes between these airports
Route: ORCKA5 LAS Q70 BLIPP Q842 WINEN MLF QWENN5
File this flight plan on PilotEdge
Remarks:
Altitude:
(Current/Filed)
35,000ft
Speed:
(Current/Filed)
460kts
Departed: 28-Oct-20 01:04 PM
Arrived: 28-Oct-20 02:31 PM
Distance/Time
Traveled:
512nm/1:27
Distance/Time
To Go:
Arrived

Flight Plot

Page will automatically refresh every two minutes.

Flight plan parsing failed; only flown route is shown


Map Options




Map Legend


Flown Route
Filed Route
Departure Airport
Arrival Airport
Navaid (VOR, NDB)
Fix

Horizontal Profiles

Position Reports

Time Latitude Longitude Heading Altitude Ground
Speed
28-Oct-20 12:36 33.946577 -118.404766 118 125ft 0kts
28-Oct-20 12:38 33.946577 -118.404766 118 125ft 0kts
28-Oct-20 12:38 33.946577 -118.404766 118 125ft 0kts
28-Oct-20 12:40 33.946577 -118.404766 118 125ft 0kts
28-Oct-20 12:40 33.946577 -118.404766 118 125ft 0kts
28-Oct-20 12:41 33.946577 -118.404766 118 125ft 0kts
28-Oct-20 12:42 33.946577 -118.404766 118 125ft 0kts
28-Oct-20 12:43 33.946577 -118.404766 118 125ft 0kts
28-Oct-20 12:44 33.946577 -118.404766 118 125ft 0kts
28-Oct-20 12:45 33.946577 -118.404766 118 125ft 0kts
28-Oct-20 12:46 33.946577 -118.404766 118 125ft 0kts
28-Oct-20 12:47 33.946577 -118.404766 118 125ft 0kts
28-Oct-20 12:48 33.946577 -118.404766 118 125ft 0kts
28-Oct-20 12:49 33.946577 -118.404766 118 125ft 0kts
28-Oct-20 12:50 33.946577 -118.404766 118 125ft 0kts
28-Oct-20 12:51 33.946577 -118.404766 118 125ft 0kts
28-Oct-20 12:52 33.946577 -118.404766 118 125ft 0kts
28-Oct-20 12:53 33.946749 -118.405164 117 125ft 2kts
28-Oct-20 12:54 33.946708 -118.405682 343 126ft 2kts
28-Oct-20 12:55 33.946473 -118.405647 353 125ft 0kts
28-Oct-20 12:56 33.946473 -118.405647 353 125ft 0kts
28-Oct-20 12:57 33.946941 -118.405716 353 126ft 0kts
28-Oct-20 12:58 33.946944 -118.405717 353 126ft 0kts
28-Oct-20 12:59 33.947485 -118.405796 353 126ft 7kts
28-Oct-20 13:00 33.948922 -118.403293 83 123ft 16kts
28-Oct-20 13:01 33.949446 -118.399320 46 118ft 0kts
28-Oct-20 13:02 33.949499 -118.399248 44 118ft 2kts
28-Oct-20 13:03 33.949580 -118.407623 263 128ft 120kts
28-Oct-20 13:04 33.943616 -118.461996 263 2828ft 182kts
28-Oct-20 13:05 33.934576 -118.535371 263 4989ft 259kts
28-Oct-20 13:06 33.923704 -118.621726 263 5004ft 260kts
28-Oct-20 13:07 33.913017 -118.707739 262 5006ft 259kts
28-Oct-20 13:08 33.857973 -118.743649 154 5504ft 287kts
28-Oct-20 13:09 33.847822 -118.661912 62 9274ft 280kts
28-Oct-20 13:10 33.880964 -118.572079 64 11640ft 327kts
28-Oct-20 13:11 33.921666 -118.460643 62 13099ft 395kts
28-Oct-20 13:12 33.980790 -118.346765 54 15888ft 410kts
28-Oct-20 13:13 34.046443 -118.230849 54 18289ft 427kts
28-Oct-20 13:14 34.114467 -118.110849 53 20414ft 442kts
28-Oct-20 13:15 34.184883 -117.986282 53 22295ft 456kts
28-Oct-20 13:16 34.256692 -117.858443 53 23127ft 462kts
28-Oct-20 13:17 34.329663 -117.728074 53 24589ft 471kts
28-Oct-20 13:18 34.404232 -117.600255 51 26604ft 464kts
28-Oct-20 13:19 34.480003 -117.473917 53 28231ft 465kts
28-Oct-20 13:20 34.555459 -117.346769 54 29690ft 465kts
28-Oct-20 13:21 34.630358 -117.219686 54 31140ft 462kts
28-Oct-20 13:22 34.705045 -117.092956 54 32453ft 460kts
28-Oct-20 13:23 34.778893 -116.967320 54 33629ft 457kts
28-Oct-20 13:24 34.852588 -116.841567 54 34689ft 455kts
28-Oct-20 13:25 34.927322 -116.717717 49 34980ft 454kts
28-Oct-20 13:26 35.012363 -116.604466 46 34981ft 454kts
28-Oct-20 13:27 35.098206 -116.491317 46 34981ft 454kts
28-Oct-20 13:28 35.183932 -116.378394 46 34981ft 454kts
28-Oct-20 13:29 35.269450 -116.264509 47 34981ft 454kts
28-Oct-20 13:30 35.354650 -116.150768 47 34981ft 454kts
28-Oct-20 13:31 35.439901 -116.036735 47 34981ft 454kts
28-Oct-20 13:32 35.525203 -115.922273 47 34981ft 454kts
28-Oct-20 13:33 35.610277 -115.807763 47 34981ft 454kts
28-Oct-20 13:34 35.694673 -115.692366 48 34981ft 454kts
28-Oct-20 13:35 35.778494 -115.576778 47 34981ft 454kts
28-Oct-20 13:36 35.862585 -115.460565 47 34981ft 454kts
28-Oct-20 13:37 35.946404 -115.344358 48 34981ft 454kts
28-Oct-20 13:38 36.030298 -115.227349 48 34981ft 454kts
28-Oct-20 13:39 36.118546 -115.116311 41 34982ft 454kts
28-Oct-20 13:40 36.213926 -115.014276 40 34981ft 454kts
28-Oct-20 13:41 36.309378 -114.911282 41 34981ft 454kts
28-Oct-20 13:42 36.404189 -114.808520 41 34981ft 454kts
28-Oct-20 13:43 36.499112 -114.705257 41 34981ft 454kts
28-Oct-20 13:44 36.594157 -114.601589 41 34981ft 454kts
28-Oct-20 13:45 36.689083 -114.498109 39 34981ft 454kts
28-Oct-20 13:46 36.792872 -114.409096 31 34981ft 454kts
28-Oct-20 13:47 36.899527 -114.325524 32 34981ft 454kts
28-Oct-20 13:48 37.006432 -114.240967 32 34981ft 454kts
28-Oct-20 13:49 37.112856 -114.156829 32 34981ft 454kts
28-Oct-20 13:50 37.219799 -114.072376 32 34981ft 454kts
28-Oct-20 13:51 37.326389 -113.987619 32 34981ft 454kts
28-Oct-20 13:52 37.432612 -113.902812 32 34981ft 454kts
28-Oct-20 13:53 37.539352 -113.817297 32 34981ft 454kts
28-Oct-20 13:54 37.645481 -113.731982 32 34981ft 454kts
28-Oct-20 13:55 37.751784 -113.646245 32 34981ft 454kts
28-Oct-20 13:56 37.858069 -113.560248 32 34981ft 454kts
28-Oct-20 13:57 37.960856 -113.467765 40 34981ft 454kts
28-Oct-20 13:58 38.054818 -113.361270 41 34981ft 454kts
28-Oct-20 13:59 38.149123 -113.253788 41 34981ft 454kts
28-Oct-20 14:00 38.243012 -113.146796 42 34981ft 454kts
28-Oct-20 14:01 38.339048 -113.042940 35 34981ft 454kts
28-Oct-20 14:02 38.448694 -112.964855 23 34981ft 454kts
28-Oct-20 14:03 38.565521 -112.902751 22 34981ft 454kts
28-Oct-20 14:04 38.681640 -112.840748 22 34981ft 454kts
28-Oct-20 14:05 38.798265 -112.778184 22 34981ft 454kts
28-Oct-20 14:06 38.914277 -112.715577 22 34981ft 454kts
28-Oct-20 14:07 39.030263 -112.652758 22 34175ft 449kts
28-Oct-20 14:08 39.144466 -112.590832 22 31639ft 448kts
28-Oct-20 14:09 39.259331 -112.528346 22 28509ft 453kts
28-Oct-20 14:10 39.371683 -112.465316 23 26404ft 432kts
28-Oct-20 14:11 39.479093 -112.403456 23 24353ft 416kts
28-Oct-20 14:12 39.582847 -112.343637 24 22354ft 402kts
28-Oct-20 14:13 39.683237 -112.285264 24 20393ft 390kts
28-Oct-20 14:14 39.780609 -112.228801 24 18469ft 379kts
28-Oct-20 14:16 39.875357 -112.173761 24 16580ft 369kts
28-Oct-20 14:17 39.967462 -112.120076 24 14724ft 359kts
28-Oct-20 14:18 40.060073 -112.064228 24 14623ft 368kts
28-Oct-20 14:19 40.152260 -112.008598 24 12817ft 360kts
28-Oct-20 14:20 40.241345 -111.954934 22 10953ft 346kts
28-Oct-20 14:21 40.327343 -111.934205 4 10686ft 283kts
28-Oct-20 14:22 40.397375 -111.928972 355 10605ft 227kts
28-Oct-20 14:23 40.458450 -111.935789 355 9699ft 216kts
28-Oct-20 14:24 40.515824 -111.942848 354 8722ft 200kts
28-Oct-20 14:25 40.571011 -111.949412 354 8217ft 189kts
28-Oct-20 14:26 40.615809 -111.954652 354 7299ft 145kts
28-Oct-20 14:27 40.655976 -111.959340 354 6565ft 144kts
28-Oct-20 14:28 40.695587 -111.963961 354 5813ft 142kts
28-Oct-20 14:28 40.728266 -111.967737 354 5163ft 141kts
28-Oct-20 14:30 40.773530 -111.973045 354 4309ft 139kts
28-Oct-20 14:30 40.791683 -111.975604 325 4236ft 16kts
28-Oct-20 14:32 40.791637 -111.977291 178 4235ft 11kts
28-Oct-20 14:32 40.790175 -111.979045 266 4235ft 12kts
28-Oct-20 14:34 40.789060 -111.983591 156 4235ft 10kts
28-Oct-20 14:34 40.788126 -111.984050 251 4235ft 3kts
28-Oct-20 14:35 40.788105 -111.984135 251 4235ft 0kts

Navigation Log

Ident Type
Flight plan parsing failed, navigation log unavailable